• Join FlightAware (Why Join?)
  • Login
  • US Flag 
02:50AM EDT


 

Airport Tracker/Info


-or-


 

Live Flight TrackerFlight Track Log ✈ SWA2353 ✈ 09-May-2013 ✈ KPHL - KMDW

Flight Track Log - Related Links

Times and Time Zones

All times are in EDT time to prevent confusion due to time zone crossing. See the SWA2353 flight status page for this flight to view local times or setup timezone preferences in your user account.

Time Position Orientation Groundspeed Altitude Reporting Facility
EDT Latitude Longitude Course Direction KTS MPH feet Rate Location/Type
07:00PM 39.8667 -75.2833 247° West 138 159 900  Level Philadelphia TRACON
07:01PM 39.8500 -75.3333 247° West 187 215 2,300 2,340 Climbing Philadelphia TRACON
07:03PM 39.8336 -75.4881 262° West 238 274 7,600 2,700 Climbing New York Center
07:04PM 39.8403 -75.5833 275° West 254 292 10,600 1,980 Climbing New York Center
07:05PM 39.8508 -75.6786 278° West 294 338 11,600 2,040 Climbing New York Center
07:06PM 39.8644 -75.8039 278° West 319 367 14,700 2,940 Climbing New York Center
07:07PM 39.8767 -75.9050 279° West 319 367 17,500 2,760 Climbing New York Center
07:08PM 39.8958 -76.0389 281° West 329 379 20,200 2,760 Climbing New York Center
07:09PM 39.9067 -76.1669 276° West 349 402 23,100 2,400 Climbing New York Center
07:10PM 39.9097 -76.2836 272° West 360 414 25,100 2,100 Climbing New York Center
07:11PM 39.9156 -76.4222 273° West 375 432 27,300 2,280 Climbing New York Center
07:12PM 39.9217 -76.5528 274° West 375 432 29,700 1,500 Climbing New York Center
07:13PM 39.9292 -76.6994 274° West 388 447 30,400 1,140 Climbing New York Center
07:14PM 39.9342 -76.8461 273° West 401 461 32,000 1,740 Climbing New York Center
07:15PM 39.9389 -76.9928 272° West 408 470 33,900 1,740 Climbing New York Center
07:16PM 39.9436 -77.1394 272° West 408 470 35,600 1,020 Climbing New York Center
07:17PM 39.9503 -77.2864 273° West 408 470 36,000 60 Climbing New York Center
07:20PM 39.9731 -77.6544 275° West 413 475 36,000  Level Cleveland Center
07:21PM 39.9975 -77.7917 283° West 395 455 36,000  Level Cleveland Center
07:22PM 40.0194 -77.9289 282° West 390 449 36,000  Level Cleveland Center
07:23PM 40.0394 -78.0692 281° West 395 455 36,000  Level Cleveland Center
07:24PM 40.0611 -78.2069 282° West 395 455 36,000  Level Cleveland Center
07:25PM 40.0847 -78.3417 283° West 390 449 36,000  Level Cleveland Center
07:26PM 40.1061 -78.4794 282° West 390 449 36,000  Level Cleveland Center
07:27PM 40.1272 -78.6144 282° West 390 449 36,000  Level Cleveland Center
07:28PM 40.1503 -78.7497 283° West 390 449 36,000  Level Cleveland Center
07:29PM 40.1714 -78.8850 282° West 390 449 36,000  Level Cleveland Center
07:30PM 40.1919 -79.0203 281° West 390 449 36,000  Level Cleveland Center
07:31PM 40.2125 -79.1475 282° West 395 455 36,000  Level Cleveland Center
07:32PM 40.2328 -79.2858 281° West 395 455 36,000  Level Cleveland Center
07:33PM 40.2594 -79.4350 283° West 395 455 36,000  Level Cleveland Center
07:34PM 40.2794 -79.5761 281° West 390 449 36,000 600 Level Cleveland Center
07:35PM 40.3014 -79.7147 282° West 390 449 37,300 960 Climbing Cleveland Center
07:36PM 40.3211 -79.8478 281° West 385 443 38,000 300 Climbing Cleveland Center
07:37PM 40.3386 -79.9783 280° West 380 437 38,000  Level Cleveland Center
07:38PM 40.3558 -80.1064 280° West 380 437 38,000  Level Cleveland Center
07:39PM 40.3753 -80.2453 280° West 385 443 38,000  Level Cleveland Center
07:40PM 40.3983 -80.3731 283° West 390 449 38,000  Level Cleveland Center
07:41PM 40.4172 -80.5067 281° West 385 443 38,000  Level Cleveland Center
07:42PM 40.4361 -80.6403 281° West 380 437 38,000  Level Cleveland Center
07:43PM 40.4547 -80.7686 281° West 375 432 38,000  Level Cleveland Center
07:44PM 40.4733 -80.8997 281° West 370 426 38,000  Level Cleveland Center
07:45PM 40.4914 -81.0336 280° West 370 426 38,000  Level Cleveland Center
07:46PM 40.5097 -81.1675 280° West 370 426 38,000  Level Cleveland Center
07:47PM 40.5256 -81.2989 279° West 370 426 38,000  Level Cleveland Center
07:48PM 40.5433 -81.4356 280° West 370 426 38,000  Level Cleveland Center
07:49PM 40.5589 -81.5725 279° West 370 426 38,000  Level Cleveland Center
07:50PM 40.5889 -81.7206 285° West 375 432 38,000  Level Cleveland Center
07:51PM 40.6208 -81.8550 287° West 381 438 38,000  Level Cleveland Center
07:52PM 40.6525 -81.9869 288° West 381 438 38,000  Level Cleveland Center
07:53PM 40.6842 -82.1219 287° West 387 445 38,000  Level Cleveland Center
07:54PM 40.7178 -82.2569 288° West 387 445 38,000  Level Cleveland Center
07:55PM 40.7469 -82.3919 286° West 387 445 38,000  Level Cleveland Center
07:56PM 40.7781 -82.5272 287° West 387 445 38,000  Level Cleveland Center
07:57PM 40.8111 -82.6681 287° West 387 445 38,000  Level Cleveland Center
07:58PM 40.8381 -82.7897 286° West 387 445 38,000  Level Cleveland Center
07:59PM 40.8706 -82.9281 287° West 387 445 38,000  Level Cleveland Center
08:00PM 40.9031 -83.0667 287° West 387 445 38,000  Level Cleveland Center
08:01PM 40.9356 -83.2025 288° West 387 445 38,000  Level Cleveland Center
08:02PM 40.9656 -83.3386 286° West 387 445 38,000  Level Cleveland Center
08:03PM 40.9975 -83.4803 287° West 387 445 38,000  Level Cleveland Center
08:04PM 41.0272 -83.6192 286° West 392 451 38,000  Level Cleveland Center
08:05PM 41.0567 -83.7636 285° West 397 457 38,000  Level Cleveland Center
08:06PM 41.0900 -83.9142 286° West 403 464 38,000 -240 Level Cleveland Center
08:08PM 41.1567 -84.2258 286° West 398 458 37,400 -960 Descending Chicago Center
08:09PM 41.1858 -84.3617 286° West 387 445 35,000 -2,520 Descending Chicago Center
08:10PM 41.2150 -84.4975 286° West 383 441 32,200 -2,460 Descending Chicago Center
08:11PM 41.2450 -84.6397 286° West 396 456 30,000 -1,140 Descending Chicago Center
08:12PM 41.2789 -84.8067 285° West 392 451 29,900 -600 Descending Chicago Center
08:13PM 41.3075 -84.9456 285° West 390 449 28,800 -960 Descending Chicago Center
08:14PM 41.3364 -85.0847 285° West 388 447 28,000 -540 Descending Chicago Center
08:15PM 41.3644 -85.2225 285° West 386 444 27,800 -600 Descending Chicago Center
08:16PM 41.3925 -85.3614 285° West 385 443 26,800 -900 Descending Chicago Center
08:17PM 41.4211 -85.5028 285° West 389 448 26,000 -1,320 Descending Chicago Center
08:18PM 41.4500 -85.6497 285° West 403 464 24,100 -2,400 Descending Chicago Center
08:19PM 41.4744 -85.8203 281° West 392 451 21,100 -2,580 Descending Chicago Center
08:20PM 41.4864 -85.9581 277° West 379 436 18,800 -2,340 Descending Chicago Center
08:21PM 41.4975 -86.0936 276° West 370 426 16,300 -2,400 Descending Chicago Center
08:22PM 41.5083 -86.2297 276° West 371 427 13,900 -2,340 Descending Chicago Center
08:23PM 41.5206 -86.3661 277° West 371 427 11,500 -1,680 Descending Chicago Center
08:25PM 41.5231 -86.4989 271° West 364 419 10,500 -720 Descending Chicago Center
08:26PM 41.5208 -86.6503 269° West 343 395 10,100 -300 Descending Chicago Center
08:27PM 41.5197 -86.7769 269° West 343 395 10,000 -120 Descending Chicago Center
08:28PM 41.5186 -86.8953 269° West 328 377 9,900 -840 Descending Chicago Center
08:29PM 41.5169 -87.0000 269° West 290 334 8,300 -1,560 Descending Chicago Center
08:30PM 41.5161 -87.1025 269° West 279 321 6,700 -1,740 Descending Chicago Center
08:30PM 41.5167 -87.1500 271° West 274 315 6,000 -540 Descending Chicago TRACON
08:31PM 41.5333 -87.2500 283° West 268 308 6,000 -300 Level Chicago TRACON
08:32PM 41.5667 -87.3333 298° West 269 310 5,500 -720 Descending Chicago TRACON
08:33PM 41.5822 -87.4033 287° West 269 310 4,800 -840 Descending Chicago Center
08:34PM 41.6044 -87.4978 287° West 269 310 4,000 -480 Descending Chicago Center
08:35PM 41.6039 -87.5914 270° West 261 300 3,900  Descending Chicago Center
08:36PM 41.6081 -87.6772 274° West 218 251 4,000  Climbing Chicago Center
08:37PM 41.6117 -87.7408 274° West 190 219 4,000  Level Chicago Center
08:38PM 41.6050 -87.8036 262° West 179 206 4,000  Level Chicago Center
08:39PM 41.5853 -87.8606 245° Southwest 176 203 4,000 -240 Level Chicago Center
08:40PM 41.5950 -87.9183 283° West 192 221 3,600 -780 Descending Chicago Center
08:41PM 41.6564 -87.9133 North 202 232 2,500 -540 Descending Chicago Center
08:42PM 41.6975 -87.8653 41° Northeast 199 229 2,500 -300 Level Chicago Center
08:43PM 41.7319 -87.8203 44° Northeast 188 216 1,900 -720 Descending Chicago Center
08:44PM 41.7500 -87.7833 57° Northeast 137 158 1,200 -840 Descending Chicago TRACON